Time;durP1;ratioP1;P1;durP2;ratioP2;P2;SDS_P1;SDS_P2;PMS_P1;PMS_P2;Temp;Humidity;BMP_temperature;BMP_pressure;BME280_temperature;BME280_humidity;BME280_pressure;Samples;Min_cycle;Max_cycle;Signal;HPM_P1;HPM_P2
2020/12/24 00:00:31;;;;;;;53.98;26.12;;;;;;;3.39;85.67;99700.49;1856453;77;25821;-51
2020/12/24 00:03:00;;;;;;;47.83;25.40;;;;;;;3.40;85.69;99692.75;1857128;77;25631;-51
2020/12/24 00:05:27;;;;;;;47.73;23.30;;;;;;;3.42;85.70;99690.59;1824640;77;26671;-50
2020/12/24 00:07:55;;;;;;;49.85;27.05;;;;;;;3.41;85.72;99679.10;1790179;80;25753;-53
2020/12/24 00:10:21;;;;;;;53.48;24.80;;;;;;;3.44;85.73;99675.06;1789888;80;25573;-54
2020/12/24 00:12:49;;;;;;;52.78;25.75;;;;;;;3.45;85.72;99663.30;1790436;79;26007;-54
2020/12/24 00:15:19;;;;;;;45.98;25.88;;;;;;;3.46;85.83;99660.91;1789919;79;26366;-53
2020/12/24 00:17:46;;;;;;;56.53;28.45;;;;;;;3.48;85.92;99654.73;1790499;79;25796;-52
2020/12/24 00:20:14;;;;;;;51.13;26.35;;;;;;;3.49;85.84;99661.66;1789778;79;26339;-53
2020/12/24 00:22:41;;;;;;;53.48;27.37;;;;;;;3.51;85.89;99648.30;1790361;80;26309;-54
2020/12/24 00:25:08;;;;;;;53.98;26.48;;;;;;;3.52;85.91;99645.89;1789903;79;25264;-54
2020/12/24 00:27:35;;;;;;;52.70;26.87;;;;;;;3.53;85.92;99652.82;1790363;80;26340;-51
2020/12/24 00:30:02;;;;;;;59.63;28.17;;;;;;;3.53;85.94;99644.01;1790009;80;25567;-55
2020/12/24 00:32:29;;;;;;;56.18;26.87;;;;;;;3.55;86.06;99639.17;1790060;80;26777;-55
2020/12/24 00:34:56;;;;;;;58.25;27.62;;;;;;;3.58;86.14;99635.16;1789865;80;25701;-53
2020/12/24 00:37:23;;;;;;;55.75;27.22;;;;;;;3.58;86.26;99622.58;1789996;79;25843;-54
2020/12/24 00:39:50;;;;;;;59.95;28.95;;;;;;;3.59;86.58;99623.37;1790023;79;25622;-55
2020/12/24 00:42:16;;;;;;;61.83;28.70;;;;;;;3.58;86.61;99609.76;1790129;80;25765;-54
2020/12/24 00:44:43;;;;;;;61.63;28.23;;;;;;;3.57;86.62;99602.25;1789889;80;26286;-53
2020/12/24 00:47:10;;;;;;;62.93;29.10;;;;;;;3.57;86.72;99596.11;1790255;80;25634;-54
2020/12/24 00:49:37;;;;;;;71.62;29.25;;;;;;;3.58;86.93;99591.03;1774273;79;26470;-54
2020/12/24 00:52:04;;;;;;;68.92;30.55;;;;;;;3.57;87.22;99574.17;1753811;81;25696;-51
2020/12/24 00:54:31;;;;;;;70.55;31.15;;;;;;;3.57;87.40;99572.83;1753500;81;25815;-50
2020/12/24 00:56:58;;;;;;;72.62;31.62;;;;;;;3.57;87.38;99562.14;1753726;81;26147;-51
2020/12/24 00:59:25;;;;;;;72.62;30.00;;;;;;;3.59;87.45;99568.55;1753538;81;25766;-51
2020/12/24 01:01:53;;;;;;;73.80;30.90;;;;;;;3.61;87.74;99562.38;1753243;81;25665;-53
2020/12/24 01:04:20;;;;;;;72.37;32.65;;;;;;;3.61;87.59;99559.70;1753137;81;25788;-51
2020/12/24 01:06:47;;;;;;;76.67;32.50;;;;;;;3.62;87.68;99557.30;1738489;81;25668;-52
2020/12/24 01:09:14;;;;;;;64.40;29.45;;;;;;;3.64;87.99;99555.12;1740332;82;25701;-52
2020/12/24 01:11:40;;;;;;;69.87;30.45;;;;;;;3.65;88.04;99552.73;1740033;81;26354;-51
2020/12/24 01:14:07;;;;;;;73.15;31.62;;;;;;;3.64;88.08;99555.92;1740349;82;25773;-52
2020/12/24 01:16:34;;;;;;;84.45;32.78;;;;;;;3.64;88.14;99547.89;1740345;82;25717;-48
2020/12/24 01:19:01;;;;;;;68.95;30.15;;;;;;;3.67;88.34;99548.68;1740302;81;25950;-49
2020/12/24 01:21:28;;;;;;;74.65;31.20;;;;;;;3.68;88.64;99542.81;1740535;81;26322;-48
2020/12/24 01:23:56;;;;;;;71.42;30.52;;;;;;;3.70;88.67;99544.66;1740226;81;25731;-52
2020/12/24 01:26:23;;;;;;;68.47;30.80;;;;;;;3.71;88.68;99547.58;1740367;81;25711;-50
2020/12/24 01:28:50;;;;;;;72.22;31.87;;;;;;;3.73;88.78;99544.10;1740225;81;25652;-51
2020/12/24 01:31:17;;;;;;;70.05;30.75;;;;;;;3.76;88.75;99541.39;1740393;82;25270;-48
2020/12/24 01:33:43;;;;;;;70.62;31.17;;;;;;;3.77;88.74;99531.75;1740371;81;27923;-49
2020/12/24 01:36:10;;;;;;;62.67;28.73;;;;;;;3.81;88.91;99533.31;1740259;81;25823;-49
2020/12/24 01:38:40;;;;;;;71.42;29.65;;;;;;;3.82;88.97;99522.88;1740616;81;25648;-49
2020/12/24 01:41:06;;;;;;;64.42;28.90;;;;;;;3.86;89.01;99514.54;1740362;82;25706;-50
2020/12/24 01:43:33;;;;;;;68.20;28.77;;;;;;;3.89;88.97;99505.95;1740748;82;25622;-49
2020/12/24 01:46:00;;;;;;;59.58;27.58;;;;;;;3.91;88.98;99493.08;1740054;81;26235;-47
2020/12/24 01:48:27;;;;;;;63.85;26.60;;;;;;;3.94;88.98;99491.18;1740599;81;25663;-51
2020/12/24 01:50:54;;;;;;;59.27;25.70;;;;;;;3.95;89.12;99480.75;1778223;80;25670;-50
2020/12/24 01:53:23;;;;;;;55.17;24.12;;;;;;;3.98;89.14;99468.11;1790064;79;25667;-48
2020/12/24 01:55:51;;;;;;;53.08;22.93;;;;;;;4.01;89.29;99457.39;1790239;79;30168;-51
2020/12/24 01:58:18;;;;;;;51.70;23.98;;;;;;;4.04;89.56;99444.78;1790061;80;25907;-51
2020/12/24 02:00:46;;;;;;;53.40;23.38;;;;;;;4.05;89.41;99439.15;1789721;80;25626;-50
2020/12/24 02:03:17;;;;;;;46.37;22.65;;;;;;;4.08;89.46;99427.84;1790080;80;25952;-51
2020/12/24 02:05:44;;;;;;;58.65;24.15;;;;;;;4.10;89.52;99417.67;1788883;79;25806;-51
2020/12/24 02:08:13;;;;;;;49.38;23.25;;;;;;;4.14;89.52;99418.42;1790246;80;25692;-51
2020/12/24 02:10:40;;;;;;;49.87;22.80;;;;;;;4.15;89.66;99408.77;1763543;80;26400;-51
2020/12/24 02:13:06;;;;;;;47.03;21.30;;;;;;;4.17;90.26;99412.50;1790139;80;25728;-52
2020/12/24 02:15:33;;;;;;;49.45;24.00;;;;;;;4.20;89.93;99407.91;1789581;80;25691;-51
2020/12/24 02:18:00;;;;;;;48.92;22.93;;;;;;;4.22;89.84;99399.05;1789702;79;25692;-49
2020/12/24 02:20:28;;;;;;;49.15;23.15;;;;;;;4.25;89.98;99382.41;1789714;80;26078;-52
2020/12/24 02:22:54;;;;;;;41.85;21.42;;;;;;;4.27;89.97;99377.04;1790234;79;25804;-51
2020/12/24 02:25:21;;;;;;;38.63;21.25;;;;;;;4.30;90.01;99376.44;1789963;79;25645;-51
2020/12/24 02:27:47;;;;;;;38.05;19.90;;;;;;;4.33;90.12;99363.58;1789896;79;26002;-51
2020/12/24 02:30:14;;;;;;;39.67;21.23;;;;;;;4.35;90.18;99352.81;1789794;79;25660;-52
2020/12/24 02:32:40;;;;;;;42.38;20.82;;;;;;;4.38;90.24;99355.47;1763528;80;25651;-51
2020/12/24 02:35:07;;;;;;;44.45;21.68;;;;;;;4.40;90.20;99343.92;1790000;79;26375;-51
2020/12/24 02:37:34;;;;;;;40.58;20.68;;;;;;;4.43;90.19;99337.44;1789927;79;25813;-52
2020/12/24 02:40:00;;;;;;;42.75;21.17;;;;;;;4.44;90.38;99329.67;1790052;79;25685;-51
2020/12/24 02:42:27;;;;;;;39.53;21.00;;;;;;;4.46;90.32;99335.52;1790220;80;25656;-52
2020/12/24 02:44:54;;;;;;;36.80;21.15;;;;;;;4.48;90.67;99317.27;1789789;80;25939;-51
2020/12/24 02:47:21;;;;;;;37.15;20.10;;;;;;;4.52;90.62;99320.72;1790251;80;26335;-51
2020/12/24 02:49:47;;;;;;;38.48;20.62;;;;;;;4.53;90.46;99311.58;1789240;80;25629;-50
2020/12/24 02:52:14;;;;;;;38.23;20.85;;;;;;;4.55;90.52;99306.19;1787359;80;25653;-52
2020/12/24 02:54:41;;;;;;;36.00;20.52;;;;;;;4.58;90.98;99305.61;1757798;80;25863;-51
2020/12/24 02:57:07;;;;;;;37.83;18.77;;;;;;;4.59;90.59;99299.70;1787199;80;25593;-52
2020/12/24 02:59:34;;;;;;;34.85;19.48;;;;;;;4.60;90.59;99295.39;1787027;79;26210;-51
2020/12/24 03:02:01;;;;;;;35.65;18.48;;;;;;;4.59;90.55;99283.08;1786958;80;26093;-51
2020/12/24 03:04:28;;;;;;;34.10;19.35;;;;;;;4.61;90.56;99284.13;1786811;80;25575;-51
2020/12/24 03:06:54;;;;;;;38.92;18.90;;;;;;;4.63;90.65;99281.42;1785283;80;25829;-51
2020/12/24 03:09:21;;;;;;;35.68;18.15;;;;;;;4.65;90.61;99279.80;1787010;80;25730;-50
2020/12/24 03:11:51;;;;;;;31.75;17.23;;;;;;;4.67;90.60;99280.28;1786934;79;26460;-51
2020/12/24 03:14:19;;;;;;;29.27;16.85;;;;;;;4.70;90.71;99278.36;1786745;80;26398;-50
2020/12/24 03:16:49;;;;;;;28.15;17.27;;;;;;;4.71;90.86;99270.56;1787162;80;25686;-50
2020/12/24 03:19:15;;;;;;;30.02;16.62;;;;;;;4.73;90.83;99262.23;1786678;79;25656;-50
2020/12/24 03:21:42;;;;;;;29.87;15.75;;;;;;;4.73;90.79;99256.32;1787194;80;25581;-50
2020/12/24 03:24:08;;;;;;;24.85;15.10;;;;;;;4.73;90.88;99261.68;1786877;79;26230;-48
2020/12/24 03:26:35;;;;;;;26.17;15.38;;;;;;;4.74;90.63;99263.28;1787011;79;26023;-48
2020/12/24 03:29:02;;;;;;;27.20;15.98;;;;;;;4.75;90.58;99263.55;1787015;79;25602;-48
2020/12/24 03:31:28;;;;;;;25.37;15.90;;;;;;;4.75;90.72;99268.90;1786960;80;25670;-47
2020/12/24 03:33:56;;;;;;;26.70;15.95;;;;;;;4.74;90.57;99262.49;1787120;80;25757;-50
2020/12/24 03:36:23;;;;;;;28.87;16.50;;;;;;;4.74;90.62;99247.76;1786881;80;25692;-49
2020/12/24 03:38:50;;;;;;;24.15;15.13;;;;;;;4.72;90.84;99254.75;1786959;80;26246;-45
2020/12/24 03:41:17;;;;;;;22.85;13.83;;;;;;;4.72;90.63;99236.55;1786552;79;25865;-45
2020/12/24 03:43:43;;;;;;;25.15;14.90;;;;;;;4.70;90.65;99228.80;1787062;80;25622;-47
2020/12/24 03:46:10;;;;;;;23.75;14.83;;;;;;;4.70;90.83;99214.08;1786857;80;26404;-46
2020/12/24 03:48:36;;;;;;;23.10;13.48;;;;;;;4.69;90.61;99213.81;1786855;79;25978;-47
2020/12/24 03:51:03;;;;;;;20.55;13.30;;;;;;;4.69;90.84;99211.13;1788225;79;25378;-48
2020/12/24 03:53:29;;;;;;;22.30;14.13;;;;;;;4.67;90.77;99215.45;1789837;79;25775;-50
2020/12/24 03:55:56;;;;;;;21.68;13.55;;;;;;;4.66;90.77;99205.80;1789721;80;25625;-50
2020/12/24 03:58:23;;;;;;;20.15;12.80;;;;;;;4.67;90.75;99193.23;1790077;79;25721;-50
2020/12/24 04:00:50;;;;;;;19.80;13.05;;;;;;;4.68;90.77;99192.94;1789686;79;26716;-48
2020/12/24 04:03:16;;;;;;;19.98;12.88;;;;;;;4.70;90.84;99179.25;1790061;79;26343;-48
2020/12/24 04:05:43;;;;;;;21.80;12.45;;;;;;;4.70;91.01;99179.77;1788443;80;25693;-47
2020/12/24 04:08:10;;;;;;;16.52;10.20;;;;;;;4.70;90.93;99173.89;1790152;80;25672;-49
2020/12/24 04:10:36;;;;;;;15.38;8.83;;;;;;;4.71;90.95;99173.34;1789776;80;25777;-48
2020/12/24 04:13:03;;;;;;;15.18;9.43;;;;;;;4.71;91.09;99160.73;1790173;80;25701;-49
2020/12/24 04:15:30;;;;;;;12.82;8.78;;;;;;;4.72;90.94;99168.23;1789461;79;25661;-47
2020/12/24 04:17:56;;;;;;;13.70;8.43;;;;;;;4.72;91.18;99171.70;1790194;80;25630;-47
2020/12/24 04:20:23;;;;;;;9.95;7.50;;;;;;;4.71;91.41;99158.60;1789720;79;25873;-50
2020/12/24 04:22:50;;;;;;;10.93;8.08;;;;;;;4.70;91.30;99154.33;1789975;80;25656;-47
2020/12/24 04:25:16;;;;;;;11.35;8.20;;;;;;;4.69;91.36;99161.58;1789809;79;25717;-48
2020/12/24 04:27:43;;;;;;;11.22;6.75;;;;;;;4.67;91.22;99162.42;1790008;80;25647;-49
2020/12/24 04:30:10;;;;;;;11.33;7.60;;;;;;;4.67;91.47;99156.52;1789679;79;25685;-50
2020/12/24 04:32:36;;;;;;;10.55;7.25;;;;;;;4.68;91.19;99159.45;1789974;79;25721;-50
2020/12/24 04:35:03;;;;;;;9.98;7.45;;;;;;;4.67;91.32;99152.50;1789892;79;26217;-48
2020/12/24 04:37:30;;;;;;;9.73;7.17;;;;;;;4.67;91.46;99147.14;1790324;79;25988;-49
2020/12/24 04:39:57;;;;;;;10.00;7.72;;;;;;;4.66;91.43;99140.18;1789840;80;25682;-48
2020/12/24 04:42:23;;;;;;;9.05;6.90;;;;;;;4.64;91.29;99120.94;1790290;79;25684;-49
2020/12/24 04:44:51;;;;;;;9.45;7.20;;;;;;;4.64;91.29;99104.88;1789833;80;25752;-51
2020/12/24 04:47:18;;;;;;;8.98;7.20;;;;;;;4.64;91.42;99117.48;1790381;80;25672;-47
2020/12/24 04:49:46;;;;;;;9.75;6.75;;;;;;;4.63;91.30;99112.67;1789896;79;26152;-50
2020/12/24 04:52:14;;;;;;;9.20;7.37;;;;;;;4.62;91.44;99126.36;1790085;79;25760;-47
2020/12/24 04:54:41;;;;;;;9.68;7.08;;;;;;;4.62;91.46;99116.44;1789853;80;26413;-50
2020/12/24 04:57:10;;;;;;;8.55;7.05;;;;;;;4.62;91.39;99119.11;1790040;80;25755;-48
2020/12/24 04:59:38;;;;;;;11.20;7.90;;;;;;;4.63;91.46;99110.52;1790113;80;25712;-50
2020/12/24 05:02:05;;;;;;;8.78;6.60;;;;;;;4.63;91.36;99116.69;1789924;80;26952;-49
2020/12/24 05:04:33;;;;;;;8.05;6.80;;;;;;;4.63;91.45;99111.34;1789842;80;25788;-49
2020/12/24 05:07:05;;;;;;;10.82;6.67;;;;;;;4.63;91.57;99114.54;1785866;80;26363;-50
2020/12/24 05:09:34;;;;;;;10.25;7.15;;;;;;;4.56;91.43;99108.23;1787327;80;26370;-49
2020/12/24 05:12:02;;;;;;;11.50;7.97;;;;;;;4.61;91.45;99104.13;1787838;80;26177;-50
2020/12/24 05:14:30;;;;;;;11.60;7.37;;;;;;;4.61;91.59;99104.13;1787199;80;25987;-49
2020/12/24 05:17:06;;;;;;;11.65;7.83;;;;;;;4.60;91.45;99102.55;1787650;80;25719;-48
2020/12/24 05:19:47;;;;;;;12.00;7.78;;;;;;;4.59;91.51;99096.94;1787309;80;25926;-48
2020/12/24 05:22:20;;;;;;;11.03;8.08;;;;;;;4.60;91.58;99110.59;1786937;80;25718;-48
2020/12/24 05:24:48;;;;;;;12.18;7.40;;;;;;;4.60;91.79;99102.55;1787408;80;25727;-49
2020/12/24 05:27:22;;;;;;;11.88;7.65;;;;;;;4.58;91.73;99083.31;1787779;80;26944;-50
2020/12/24 05:29:52;;;;;;;11.43;8.50;;;;;;;4.58;91.78;99081.16;1787255;80;25672;-50
2020/12/24 05:32:28;;;;;;;11.68;8.60;;;;;;;4.58;91.75;99073.94;1787872;79;25704;-49
2020/12/24 05:35:08;;;;;;;12.43;8.63;;;;;;;4.60;91.87;99070.97;1786239;80;25679;-47
2020/12/24 05:37:36;;;;;;;12.95;8.25;;;;;;;4.59;92.00;99076.84;1787491;80;25641;-50
2020/12/24 05:40:30;;;;;;;12.33;9.33;;;;;;;4.62;92.04;99076.81;1787199;80;25906;-47
2020/12/24 05:43:00;;;;;;;12.95;8.55;;;;;;;4.62;92.06;99079.49;1786866;79;25734;-48
2020/12/24 05:45:30;;;;;;;13.62;9.23;;;;;;;4.64;92.33;99069.27;1786931;80;25647;-47
2020/12/24 05:48:15;;;;;;;15.80;9.68;;;;;;;4.66;92.28;99065.73;1787134;79;25755;-48
2020/12/24 05:50:44;;;;;;;17.20;10.75;;;;;;;4.68;92.42;99066.22;1786939;79;25869;-52
2020/12/24 05:53:13;;;;;;;15.15;10.35;;;;;;;4.71;92.39;99058.94;1787577;80;26156;-49
2020/12/24 05:55:42;;;;;;;16.57;10.78;;;;;;;4.73;92.50;99060.77;1787478;80;26342;-50
2020/12/24 05:58:09;;;;;;;17.37;11.80;;;;;;;4.76;92.58;99062.84;1788149;80;25633;-52
2020/12/24 06:00:42;;;;;;;15.72;11.15;;;;;;;4.81;92.75;99059.27;1787257;79;25262;-52
2020/12/24 06:03:16;;;;;;;16.65;11.18;;;;;;;4.84;92.77;99060.80;1787739;80;25738;-52
2020/12/24 06:06:00;;;;;;;18.82;12.07;;;;;;;4.87;93.05;99066.13;1786178;79;25934;-50
2020/12/24 06:08:33;;;;;;;17.95;12.13;;;;;;;4.90;92.73;99067.39;1787616;80;25684;-49
2020/12/24 06:11:08;;;;;;;18.62;11.80;;;;;;;4.94;92.72;99063.81;1787252;79;25817;-49
2020/12/24 06:13:43;;;;;;;19.48;12.43;;;;;;;4.98;93.18;99051.39;1787732;79;25698;-50
2020/12/24 06:16:13;;;;;;;20.75;13.18;;;;;;;5.02;93.09;99056.41;1787415;79;25642;-50
2020/12/24 06:18:46;;;;;;;18.15;12.00;;;;;;;5.06;93.63;99049.89;1787908;79;25689;-50
2020/12/24 06:21:15;;;;;;;20.90;12.78;;;;;;;5.13;93.56;99054.84;1787524;80;25652;-46
2020/12/24 06:23:49;;;;;;;22.30;13.60;;;;;;;5.17;93.52;99055.25;1787480;79;25731;-48
2020/12/24 06:26:37;;;;;;;21.05;13.80;;;;;;;5.21;93.45;99050.89;1787637;79;25718;-47
2020/12/24 06:29:05;;;;;;;22.37;14.05;;;;;;;5.26;93.54;99055.87;1786130;80;25691;-48
2020/12/24 06:31:34;;;;;;;18.77;13.40;;;;;;;5.30;93.59;99038.89;1787630;80;27162;-48
2020/12/24 06:34:24;;;;;;;19.98;14.30;;;;;;;5.32;93.66;99045.29;1787636;79;26151;-48
2020/12/24 06:36:52;;;;;;;24.50;14.47;;;;;;;5.38;93.46;99040.84;1787370;79;25757;-48
2020/12/24 06:39:43;;;;;;;21.57;14.38;;;;;;;5.44;93.46;99045.53;1787222;80;25722;-46
2020/12/24 06:42:40;;;;;;;21.45;14.13;;;;;;;5.49;93.69;99048.64;1787692;80;25689;-48
2020/12/24 06:45:10;;;;;;;23.47;14.85;;;;;;;5.53;93.58;99045.58;1786998;79;25849;-49
2020/12/24 06:47:39;;;;;;;21.00;14.05;;;;;;;5.56;93.43;99042.30;1787548;80;25611;-49
2020/12/24 06:50:39;;;;;;;21.95;15.15;;;;;;;5.61;93.56;99050.22;1787439;79;25678;-50
2020/12/24 06:53:33;;;;;;;21.52;14.87;;;;;;;5.65;93.53;99046.38;1773831;80;26449;-49
2020/12/24 06:56:24;;;;;;;23.38;15.65;;;;;;;5.70;93.64;99042.22;1784199;80;25721;-45
2020/12/24 06:59:03;;;;;;;22.02;14.93;;;;;;;5.74;93.61;99045.33;1784357;80;25763;-48
2020/12/24 07:01:35;;;;;;;22.93;15.83;;;;;;;5.78;93.74;99046.30;1784473;79;25702;-49
2020/12/24 07:04:05;;;;;;;23.67;15.80;;;;;;;5.82;93.72;99042.44;1784150;79;25576;-49
2020/12/24 07:06:45;;;;;;;;;;;;;;;5.86;93.81;99046.67;1784840;79;25668;-49
2020/12/24 07:09:23;;;;;;;22.13;15.15;;;;;;;5.91;93.85;99045.20;1781755;80;26305;-49
2020/12/24 07:11:52;;;;;;;25.25;15.90;;;;;;;5.93;93.81;99037.62;1736919;82;25782;-50
2020/12/24 07:14:31;;;;;;;24.43;16.32;;;;;;;5.96;93.76;99037.83;1737018;82;25750;-49
2020/12/24 07:17:14;;;;;;;27.05;16.93;;;;;;;5.99;93.74;99041.77;1737294;82;25837;-51
2020/12/24 07:19:43;;;;;;;24.00;16.20;;;;;;;6.04;93.91;99047.56;1735809;82;26286;-48
2020/12/24 07:22:17;;;;;;;27.70;17.32;;;;;;;6.07;93.87;99038.34;1737099;82;25715;-50
2020/12/24 07:24:57;;;;;;;27.77;16.82;;;;;;;6.11;93.87;99027.77;1736735;82;25760;-49
2020/12/24 07:27:24;;;;;;;27.73;18.12;;;;;;;6.16;93.87;99039.19;1736916;82;25608;-49
2020/12/24 07:29:51;;;;;;;28.70;17.52;;;;;;;6.21;93.86;99036.11;1736609;82;25785;-48
2020/12/24 07:32:20;;;;;;;29.02;17.62;;;;;;;6.23;93.85;99032.02;1736675;82;25937;-50
2020/12/24 07:34:47;;;;;;;27.07;17.73;;;;;;;6.27;93.88;99037.00;1736865;82;26331;-46
2020/12/24 07:37:14;;;;;;;25.08;16.82;;;;;;;6.31;93.82;99031.23;1737063;81;25709;-50
2020/12/24 07:39:52;;;;;;;27.02;16.87;;;;;;;6.35;93.87;99038.93;1737012;82;25793;-48
2020/12/24 07:42:26;;;;;;;25.37;17.27;;;;;;;6.38;93.84;99042.88;1736947;82;25779;-50
2020/12/24 07:44:53;;;;;;;27.27;17.75;;;;;;;6.41;93.76;99042.25;1736693;82;25830;-49
2020/12/24 07:47:20;;;;;;;24.15;17.07;;;;;;;6.45;93.69;99042.42;1737281;82;25673;-50
2020/12/24 07:49:53;;;;;;;25.92;17.52;;;;;;;6.49;93.82;99049.55;1707321;82;26255;-50
2020/12/24 07:52:21;;;;;;;28.80;16.57;;;;;;;6.52;93.87;99049.47;1737290;81;25637;-45
2020/12/24 07:54:47;;;;;;;25.17;17.62;;;;;;;6.56;93.84;99060.41;1736841;82;25703;-47
2020/12/24 07:57:22;;;;;;;31.25;18.50;;;;;;;6.59;94.06;99052.52;1737023;82;25750;-48
2020/12/24 08:00:00;;;;;;;27.13;17.02;;;;;;;6.62;94.02;99049.18;1736685;82;25797;-48
2020/12/24 08:02:27;;;;;;;28.83;17.92;;;;;;;6.66;94.05;99044.78;1737048;82;25800;-48
2020/12/24 08:04:55;;;;;;;23.85;16.42;;;;;;;6.70;93.99;99045.72;1736590;81;26005;-49
2020/12/24 08:07:21;;;;;;;26.12;17.45;;;;;;;6.75;94.05;99042.10;1735783;82;25663;-47
2020/12/24 08:09:48;;;;;;;25.00;16.85;;;;;;;6.79;94.10;99053.80;1736685;82;25716;-47
2020/12/24 08:12:23;;;;;;;27.30;17.75;;;;;;;6.84;94.32;99063.05;1737023;82;26213;-46
2020/12/24 08:14:51;;;;;;;28.62;18.57;;;;;;;6.89;94.37;99059.44;1736817;82;25923;-51
2020/12/24 08:17:38;;;;;;;30.12;18.73;;;;;;;6.95;94.42;99062.75;1736824;82;25612;-49
2020/12/24 08:20:10;;;;;;;28.47;18.98;;;;;;;6.99;94.39;99061.81;1736932;82;25782;-49
2020/12/24 08:23:02;;;;;;;27.98;19.23;;;;;;;7.04;94.56;99064.91;1737062;82;25705;-48
2020/12/24 08:25:29;;;;;;;31.37;19.73;;;;;;;7.09;94.79;99066.11;1735776;82;25775;-49
2020/12/24 08:27:58;;;;;;;28.42;19.07;;;;;;;7.16;94.89;99066.42;1737172;82;25722;-49
2020/12/24 08:30:26;;;;;;;26.73;17.87;;;;;;;7.21;94.78;99067.61;1736652;82;25741;-49
2020/12/24 08:32:53;;;;;;;25.70;17.80;;;;;;;7.25;94.84;99067.23;1737168;82;26415;-49
2020/12/24 08:35:20;;;;;;;28.73;17.73;;;;;;;7.31;95.06;99061.13;1736848;82;25952;-49
2020/12/24 08:37:47;;;;;;;25.05;17.62;;;;;;;7.36;95.00;99068.26;1737311;82;25675;-49
2020/12/24 08:40:25;;;;;;;25.77;18.10;;;;;;;7.41;95.02;99072.13;1734524;82;27080;-50
2020/12/24 08:42:58;;;;;;;29.15;17.25;;;;;;;7.43;95.07;99069.34;1732218;82;26179;-49
2020/12/24 08:45:25;;;;;;;25.32;16.95;;;;;;;7.48;95.03;99065.71;1731760;82;25698;-46
2020/12/24 08:47:52;;;;;;;26.57;17.92;;;;;;;7.53;95.29;99070.93;1732062;82;26354;-45
2020/12/24 08:50:31;;;;;;;29.12;18.02;;;;;;;7.56;95.03;99066.27;1731746;82;26273;-49
2020/12/24 08:52:59;;;;;;;29.00;19.60;;;;;;;7.60;95.04;99066.41;1749233;81;26945;-50
2020/12/24 08:55:29;;;;;;;25.97;18.20;;;;;;;7.63;95.14;99069.25;1731657;82;25734;-47
2020/12/24 08:57:56;;;;;;;23.90;17.85;;;;;;;7.67;95.08;99064.80;1750340;81;25656;-50
2020/12/24 09:00:25;;;;;;;29.77;18.70;;;;;;;7.72;95.27;99061.73;1718259;83;26293;-47
2020/12/24 09:02:52;;;;;;;29.10;20.60;;;;;;;7.76;95.24;99069.39;1732340;82;25663;-49
2020/12/24 09:05:24;;;;;;;28.65;19.25;;;;;;;7.78;95.10;99069.31;1750183;81;26880;-51
2020/12/24 09:07:51;;;;;;;30.27;20.40;;;;;;;7.81;95.15;99060.58;1742453;80;32898;-49
2020/12/24 09:10:27;;;;;;;26.10;18.85;;;;;;;7.84;95.03;99067.23;1732165;82;26043;-47
2020/12/24 09:12:57;;;;;;;29.20;19.67;;;;;;;7.86;94.99;99065.80;1713466;83;25267;-49
2020/12/24 09:15:27;;;;;;;29.60;20.10;;;;;;;7.89;95.14;99057.64;1732321;82;32351;-50
2020/12/24 09:17:56;;;;;;;26.37;18.70;;;;;;;7.94;95.04;99062.08;1745227;82;25773;-48
2020/12/24 09:20:25;;;;;;;30.92;19.62;;;;;;;7.96;95.19;99059.84;1732168;82;25671;-47
2020/12/24 09:22:59;;;;;;;32.58;19.98;;;;;;;7.98;95.08;99048.97;1714005;83;34947;-50
2020/12/24 09:25:41;;;;;;;29.32;20.88;;;;;;;8.03;95.14;99050.71;1731509;82;25724;-47
2020/12/24 09:28:25;;;;;;;26.37;19.10;;;;;;;8.09;95.14;99041.89;1723253;82;25605;-48
2020/12/24 09:30:55;;;;;;;26.87;19.20;;;;;;;8.13;95.24;99044.19;1732303;82;25787;-50
2020/12/24 09:33:21;;;;;;;27.32;18.20;;;;;;;8.18;95.16;99042.66;1713440;83;25803;-47
2020/12/24 09:35:48;;;;;;;26.70;18.25;;;;;;;8.21;95.24;99050.11;1732278;82;25845;-49
2020/12/24 09:38:15;;;;;;;28.92;18.77;;;;;;;8.25;95.25;99031.39;1713455;83;25741;-52
2020/12/24 09:40:42;;;;;;;27.48;18.20;;;;;;;8.30;95.23;99028.52;1732287;82;25665;-52
2020/12/24 09:43:09;;;;;;;25.70;18.23;;;;;;;8.33;95.21;99029.22;1713610;83;26673;-52
2020/12/24 09:45:38;;;;;;;26.40;18.15;;;;;;;8.36;95.15;99030.70;1732215;82;25749;-49
2020/12/24 09:48:06;;;;;;;25.37;17.30;;;;;;;8.40;95.16;99024.88;1713809;83;25733;-50
2020/12/24 09:50:34;;;;;;;25.70;16.95;;;;;;;8.44;95.24;99031.78;1732112;82;25733;-49
2020/12/24 09:53:03;;;;;;;25.35;16.80;;;;;;;8.47;95.17;99025.75;1744753;82;25944;-51
2020/12/24 09:55:30;;;;;;;24.65;16.42;;;;;;;8.53;95.17;99029.04;1712061;83;25716;-49
2020/12/24 09:57:57;;;;;;;22.15;16.07;;;;;;;8.56;95.20;99028.39;1743684;82;25602;-49
2020/12/24 10:00:24;;;;;;;24.25;17.25;;;;;;;8.59;95.08;99022.36;1712073;83;25985;-50
2020/12/24 10:02:51;;;;;;;25.08;16.52;;;;;;;8.63;95.16;99018.45;1743633;82;25619;-49
2020/12/24 10:05:18;;;;;;;21.93;16.12;;;;;;;8.66;95.08;99015.89;1712089;83;25770;-50
2020/12/24 10:07:44;;;;;;;22.30;16.05;;;;;;;8.71;95.05;99011.65;1741288;79;25699;-51
2020/12/24 10:10:11;;;;;;;23.57;14.83;;;;;;;8.74;95.02;99023.13;1711856;83;25787;-50
2020/12/24 10:12:38;;;;;;;25.12;15.78;;;;;;;8.78;94.97;99023.27;1743329;81;25675;-49
2020/12/24 10:15:06;;;;;;;21.05;14.65;;;;;;;8.81;95.01;99019.92;1712173;83;25653;-50
2020/12/24 10:17:32;;;;;;;19.82;14.55;;;;;;;8.84;95.03;99023.31;1743465;81;25905;-51
2020/12/24 10:19:59;;;;;;;18.52;14.47;;;;;;;8.86;94.90;99022.42;1711928;83;26440;-51
2020/12/24 10:22:26;;;;;;;22.60;14.93;;;;;;;8.88;94.92;99019.40;1743604;81;25699;-50
2020/12/24 10:24:53;;;;;;;20.85;14.33;;;;;;;8.91;94.99;99027.62;1711781;83;25588;-49
2020/12/24 10:27:20;;;;;;;20.68;14.93;;;;;;;8.92;95.00;99035.14;1743604;81;25711;-49
2020/12/24 10:29:47;;;;;;;19.15;14.65;;;;;;;8.96;94.87;99030.69;1711881;83;25657;-48
2020/12/24 10:32:13;;;;;;;19.10;13.78;;;;;;;8.97;94.89;99022.81;1743449;82;26726;-50
2020/12/24 10:34:40;;;;;;;17.35;13.25;;;;;;;9.00;94.86;99028.12;1711724;83;25688;-52
2020/12/24 10:37:07;;;;;;;17.23;12.13;;;;;;;9.01;94.81;99020.23;1743439;82;25646;-49
2020/12/24 10:39:34;;;;;;;16.48;11.60;;;;;;;9.02;94.73;99023.96;1712094;83;25753;-51
2020/12/24 10:42:01;;;;;;;13.38;10.32;;;;;;;9.03;94.66;99036.34;1743332;81;25709;-50
2020/12/24 10:44:28;;;;;;;14.10;9.28;;;;;;;9.05;94.61;99019.83;1712179;83;27055;-51
2020/12/24 10:46:56;;;;;;;14.13;9.60;;;;;;;9.06;94.61;99020.85;1743333;82;25631;-50
2020/12/24 10:49:24;;;;;;;13.10;9.45;;;;;;;9.07;94.44;99025.11;1698593;83;25677;-49
2020/12/24 10:51:53;;;;;;;12.78;9.68;;;;;;;9.08;94.41;99025.92;1726681;82;25734;-50
2020/12/24 10:54:20;;;;;;;16.07;9.55;;;;;;;9.10;94.37;99020.98;1723592;83;25858;-49
2020/12/24 10:56:50;;;;;;;15.75;9.38;;;;;;;9.10;94.28;99014.23;1723109;83;25925;-51
2020/12/24 10:59:17;;;;;;;11.40;8.63;;;;;;;9.09;94.24;99009.95;1722759;83;26000;-50
2020/12/24 11:01:46;;;;;;;14.63;9.23;;;;;;;9.10;94.22;99006.14;1722693;82;25795;-50
2020/12/24 11:04:13;;;;;;;12.47;9.43;;;;;;;9.11;94.20;99003.69;1723102;83;25746;-52
2020/12/24 11:06:42;;;;;;;16.23;9.68;;;;;;;9.11;94.12;98995.59;1720770;83;25911;-51
2020/12/24 11:09:08;;;;;;;12.53;9.28;;;;;;;9.12;94.08;98991.19;1722822;83;25909;-51
2020/12/24 11:11:36;;;;;;;15.43;10.40;;;;;;;9.12;94.04;98995.23;1718032;83;26075;-51
2020/12/24 11:14:03;;;;;;;15.75;10.28;;;;;;;9.12;94.01;98988.49;1744502;82;25690;-49
2020/12/24 11:16:30;;;;;;;14.50;10.60;;;;;;;9.12;94.00;98986.36;1744837;82;25741;-50
2020/12/24 11:18:57;;;;;;;16.93;11.85;;;;;;;9.11;93.95;98981.53;1744627;82;25602;-51
2020/12/24 11:21:24;;;;;;;15.48;10.13;;;;;;;9.12;93.90;98978.27;1744826;82;27179;-49
2020/12/24 11:23:50;;;;;;;16.40;10.30;;;;;;;9.11;93.91;98976.14;1744767;82;25718;-51
2020/12/24 11:26:25;;;;;;;16.77;9.98;;;;;;;9.12;93.85;98980.40;1744649;82;25631;-51
2020/12/24 11:28:53;;;;;;;17.07;9.85;;;;;;;9.11;93.88;98993.67;1744846;82;25622;-52
2020/12/24 11:31:26;;;;;;;17.98;10.90;;;;;;;9.11;93.80;98990.98;1744597;82;25686;-50
2020/12/24 11:33:53;;;;;;;19.50;11.80;;;;;;;9.08;93.85;98977.37;1744714;82;26087;-51
2020/12/24 11:36:21;;;;;;;18.62;12.37;;;;;;;9.08;93.78;98977.37;1744442;82;25767;-52